sensor_id;sensor_type;location;lat;lon;timestamp;temperature;humidity
27534;DHT22;14973;51.460;7.008;2023-05-01T00:01:14;10.50;99.90
27534;DHT22;14973;51.460;7.008;2023-05-01T00:03:40;10.50;99.90
27534;DHT22;14973;51.460;7.008;2023-05-01T00:06:05;10.60;99.90
27534;DHT22;14973;51.460;7.008;2023-05-01T00:08:32;10.60;99.90
27534;DHT22;14973;51.460;7.008;2023-05-01T00:11:03;10.50;99.90
27534;DHT22;14973;51.460;7.008;2023-05-01T00:13:30;10.50;99.90
27534;DHT22;14973;51.460;7.008;2023-05-01T00:15:55;10.50;99.90
27534;DHT22;14973;51.460;7.008;2023-05-01T00:18:21;10.50;99.90
27534;DHT22;14973;51.460;7.008;2023-05-01T00:20:47;10.40;99.90
27534;DHT22;14973;51.460;7.008;2023-05-01T00:23:12;10.30;1.00
27534;DHT22;14973;51.460;7.008;2023-05-01T00:25:38;10.30;1.00
27534;DHT22;14973;51.460;7.008;2023-05-01T00:28:04;10.30;1.00
27534;DHT22;14973;51.460;7.008;2023-05-01T00:30:33;10.30;99.90
27534;DHT22;14973;51.460;7.008;2023-05-01T00:32:59;10.40;99.90
27534;DHT22;14973;51.460;7.008;2023-05-01T00:35:26;10.30;1.00
27534;DHT22;14973;51.460;7.008;2023-05-01T00:37:51;10.30;1.00
27534;DHT22;14973;51.460;7.008;2023-05-01T00:40:17;10.30;1.00
27534;DHT22;14973;51.460;7.008;2023-05-01T00:42:42;10.30;1.00
27534;DHT22;14973;51.460;7.008;2023-05-01T00:45:08;10.20;1.00
27534;DHT22;14973;51.460;7.008;2023-05-01T00:47:34;10.20;1.00
27534;DHT22;14973;51.460;7.008;2023-05-01T00:50:00;10.20;1.00
27534;DHT22;14973;51.460;7.008;2023-05-01T00:52:26;10.20;1.00
27534;DHT22;14973;51.460;7.008;2023-05-01T00:54:51;10.10;1.00
27534;DHT22;14973;51.460;7.008;2023-05-01T00:57:21;10.10;1.00
27534;DHT22;14973;51.460;7.008;2023-05-01T00:59:46;10.00;1.00
27534;DHT22;14973;51.460;7.008;2023-05-01T01:02:12;10.00;1.00
27534;DHT22;14973;51.460;7.008;2023-05-01T01:04:41;10.00;1.00
27534;DHT22;14973;51.460;7.008;2023-05-01T01:14:54;9.90;1.00
27534;DHT22;14973;51.460;7.008;2023-05-01T01:20:13;9.90;1.00
27534;DHT22;14973;51.460;7.008;2023-05-01T01:22:42;9.90;1.00
27534;DHT22;14973;51.460;7.008;2023-05-01T01:28:03;10.00;1.00
27534;DHT22;14973;51.460;7.008;2023-05-01T01:35:50;10.00;1.00
27534;DHT22;14973;51.460;7.008;2023-05-01T01:38:22;10.00;1.00
27534;DHT22;14973;51.460;7.008;2023-05-01T01:40:59;10.00;1.00
27534;DHT22;14973;51.460;7.008;2023-05-01T01:43:26;10.00;1.00
27534;DHT22;14973;51.460;7.008;2023-05-01T01:45:59;10.10;1.00
27534;DHT22;14973;51.460;7.008;2023-05-01T01:48:29;10.10;1.00
27534;DHT22;14973;51.460;7.008;2023-05-01T01:50:56;10.00;1.00
27534;DHT22;14973;51.460;7.008;2023-05-01T01:53:23;10.10;1.00
27534;DHT22;14973;51.460;7.008;2023-05-01T01:55:49;10.10;1.00
27534;DHT22;14973;51.460;7.008;2023-05-01T01:58:16;10.20;1.00
27534;DHT22;14973;51.460;7.008;2023-05-01T02:00:43;10.20;1.00
27534;DHT22;14973;51.460;7.008;2023-05-01T02:03:09;10.20;1.00
27534;DHT22;14973;51.460;7.008;2023-05-01T02:05:37;10.20;1.00
27534;DHT22;14973;51.460;7.008;2023-05-01T02:08:03;10.20;1.00
27534;DHT22;14973;51.460;7.008;2023-05-01T02:10:29;10.20;1.00
27534;DHT22;14973;51.460;7.008;2023-05-01T02:12:57;10.30;1.00
27534;DHT22;14973;51.460;7.008;2023-05-01T02:15:23;10.30;1.00
27534;DHT22;14973;51.460;7.008;2023-05-01T02:17:50;10.30;99.90
27534;DHT22;14973;51.460;7.008;2023-05-01T02:20:16;10.30;1.00
27534;DHT22;14973;51.460;7.008;2023-05-01T02:22:42;10.30;99.90
27534;DHT22;14973;51.460;7.008;2023-05-01T02:25:11;10.30;1.00
27534;DHT22;14973;51.460;7.008;2023-05-01T02:27:42;10.30;1.00
27534;DHT22;14973;51.460;7.008;2023-05-01T02:30:09;10.30;1.00
27534;DHT22;14973;51.460;7.008;2023-05-01T02:32:35;10.30;99.90
27534;DHT22;14973;51.460;7.008;2023-05-01T02:35:01;10.40;99.90
27534;DHT22;14973;51.460;7.008;2023-05-01T02:37:26;10.40;99.90
27534;DHT22;14973;51.460;7.008;2023-05-01T02:39:52;10.40;99.90
27534;DHT22;14973;51.460;7.008;2023-05-01T02:42:18;10.40;99.90
27534;DHT22;14973;51.460;7.008;2023-05-01T02:44:50;10.40;99.90
27534;DHT22;14973;51.460;7.008;2023-05-01T02:47:17;10.30;1.00
27534;DHT22;14973;51.460;7.008;2023-05-01T02:49:44;10.30;1.00
27534;DHT22;14973;51.460;7.008;2023-05-01T02:52:13;10.30;1.00
27534;DHT22;14973;51.460;7.008;2023-05-01T02:54:38;10.20;1.00
27534;DHT22;14973;51.460;7.008;2023-05-01T02:57:04;10.10;1.00
27534;DHT22;14973;51.460;7.008;2023-05-01T02:59:30;10.20;1.00
27534;DHT22;14973;51.460;7.008;2023-05-01T03:01:56;10.10;1.00
27534;DHT22;14973;51.460;7.008;2023-05-01T03:04:22;10.10;1.00
27534;DHT22;14973;51.460;7.008;2023-05-01T03:06:47;10.10;1.00
27534;DHT22;14973;51.460;7.008;2023-05-01T03:09:13;10.10;1.00
27534;DHT22;14973;51.460;7.008;2023-05-01T03:11:39;10.10;1.00
27534;DHT22;14973;51.460;7.008;2023-05-01T03:14:04;10.10;1.00
27534;DHT22;14973;51.460;7.008;2023-05-01T03:16:30;10.10;1.00
27534;DHT22;14973;51.460;7.008;2023-05-01T03:18:56;10.00;1.00
27534;DHT22;14973;51.460;7.008;2023-05-01T03:21:21;10.10;1.00
27534;DHT22;14973;51.460;7.008;2023-05-01T03:23:47;10.00;1.00
27534;DHT22;14973;51.460;7.008;2023-05-01T03:26:13;10.00;1.00
27534;DHT22;14973;51.460;7.008;2023-05-01T03:28:39;10.00;1.00
27534;DHT22;14973;51.460;7.008;2023-05-01T03:31:04;10.00;1.00
27534;DHT22;14973;51.460;7.008;2023-05-01T03:33:30;10.00;1.00
27534;DHT22;14973;51.460;7.008;2023-05-01T03:36:02;9.90;1.00
27534;DHT22;14973;51.460;7.008;2023-05-01T03:38:31;9.90;1.00
27534;DHT22;14973;51.460;7.008;2023-05-01T03:40:57;9.90;1.00
27534;DHT22;14973;51.460;7.008;2023-05-01T03:43:23;9.90;1.00
27534;DHT22;14973;51.460;7.008;2023-05-01T03:45:49;9.90;1.00
27534;DHT22;14973;51.460;7.008;2023-05-01T03:48:15;9.90;1.00
27534;DHT22;14973;51.460;7.008;2023-05-01T03:50:41;9.90;1.00
27534;DHT22;14973;51.460;7.008;2023-05-01T03:53:07;9.90;1.00
27534;DHT22;14973;51.460;7.008;2023-05-01T03:55:32;9.80;1.00
27534;DHT22;14973;51.460;7.008;2023-05-01T03:57:58;9.70;1.00
27534;DHT22;14973;51.460;7.008;2023-05-01T04:00:23;9.80;1.00
27534;DHT22;14973;51.460;7.008;2023-05-01T04:02:49;9.70;1.00
27534;DHT22;14973;51.460;7.008;2023-05-01T04:05:15;9.70;1.00
27534;DHT22;14973;51.460;7.008;2023-05-01T04:07:40;9.70;1.00
27534;DHT22;14973;51.460;7.008;2023-05-01T04:10:06;9.70;1.00
27534;DHT22;14973;51.460;7.008;2023-05-01T04:12:34;9.60;1.00
27534;DHT22;14973;51.460;7.008;2023-05-01T04:14:59;9.50;1.80
27534;DHT22;14973;51.460;7.008;2023-05-01T04:17:25;9.50;3.80
27534;DHT22;14973;51.460;7.008;2023-05-01T04:19:51;9.50;5.10
27534;DHT22;14973;51.460;7.008;2023-05-01T04:22:17;9.40;9.00
27534;DHT22;14973;51.460;7.008;2023-05-01T04:24:43;9.50;16.00
27534;DHT22;14973;51.460;7.008;2023-05-01T04:27:09;9.50;12.90
27534;DHT22;14973;51.460;7.008;2023-05-01T04:29:35;9.60;17.00
27534;DHT22;14973;51.460;7.008;2023-05-01T04:32:01;9.80;3.60
27534;DHT22;14973;51.460;7.008;2023-05-01T04:34:26;9.90;1.00
27534;DHT22;14973;51.460;7.008;2023-05-01T04:36:54;9.90;1.00
27534;DHT22;14973;51.460;7.008;2023-05-01T04:39:21;10.00;1.00
27534;DHT22;14973;51.460;7.008;2023-05-01T04:41:47;10.10;1.00
27534;DHT22;14973;51.460;7.008;2023-05-01T04:44:12;10.00;1.00
27534;DHT22;14973;51.460;7.008;2023-05-01T04:46:38;10.10;1.00
27534;DHT22;14973;51.460;7.008;2023-05-01T04:49:04;10.10;1.00
27534;DHT22;14973;51.460;7.008;2023-05-01T04:51:29;10.20;1.00
27534;DHT22;14973;51.460;7.008;2023-05-01T04:53:55;10.10;1.00
27534;DHT22;14973;51.460;7.008;2023-05-01T04:56:20;10.10;1.00
27534;DHT22;14973;51.460;7.008;2023-05-01T04:58:46;10.20;1.00
27534;DHT22;14973;51.460;7.008;2023-05-01T05:01:12;10.20;1.00
27534;DHT22;14973;51.460;7.008;2023-05-01T05:03:37;10.30;1.00
27534;DHT22;14973;51.460;7.008;2023-05-01T05:06:03;10.40;1.00
27534;DHT22;14973;51.460;7.008;2023-05-01T05:08:28;10.50;1.00
27534;DHT22;14973;51.460;7.008;2023-05-01T05:10:57;10.50;1.00
27534;DHT22;14973;51.460;7.008;2023-05-01T05:13:24;10.70;99.90
27534;DHT22;14973;51.460;7.008;2023-05-01T05:15:49;10.80;99.90
27534;DHT22;14973;51.460;7.008;2023-05-01T05:18:15;11.00;29.10
27534;DHT22;14973;51.460;7.008;2023-05-01T05:20:41;11.30;99.90
27534;DHT22;14973;51.460;7.008;2023-05-01T05:23:06;11.50;99.90
27534;DHT22;14973;51.460;7.008;2023-05-01T05:25:32;11.90;99.90
27534;DHT22;14973;51.460;7.008;2023-05-01T05:27:58;12.80;1.00
27534;DHT22;14973;51.460;7.008;2023-05-01T05:30:25;13.40;30.20
27534;DHT22;14973;51.460;7.008;2023-05-01T05:32:50;13.50;1.00
27534;DHT22;14973;51.460;7.008;2023-05-01T05:35:16;13.80;1.00
27534;DHT22;14973;51.460;7.008;2023-05-01T05:37:42;13.90;1.00
27534;DHT22;14973;51.460;7.008;2023-05-01T05:40:07;14.30;99.90
27534;DHT22;14973;51.460;7.008;2023-05-01T05:42:33;14.40;99.90
27534;DHT22;14973;51.460;7.008;2023-05-01T05:44:59;15.30;99.90
27534;DHT22;14973;51.460;7.008;2023-05-01T05:47:24;16.00;99.90
27534;DHT22;14973;51.460;7.008;2023-05-01T05:49:50;17.20;21.20
27534;DHT22;14973;51.460;7.008;2023-05-01T05:52:15;18.80;1.00
27534;DHT22;14973;51.460;7.008;2023-05-01T05:54:41;20.20;1.00
27534;DHT22;14973;51.460;7.008;2023-05-01T05:57:07;21.50;1.00
27534;DHT22;14973;51.460;7.008;2023-05-01T05:59:33;22.30;1.00
27534;DHT22;14973;51.460;7.008;2023-05-01T06:01:59;22.40;1.00
27534;DHT22;14973;51.460;7.008;2023-05-01T06:04:25;22.20;1.00
27534;DHT22;14973;51.460;7.008;2023-05-01T06:06:50;21.80;1.00
27534;DHT22;14973;51.460;7.008;2023-05-01T06:09:16;21.30;1.00
27534;DHT22;14973;51.460;7.008;2023-05-01T06:11:43;20.70;1.00
27534;DHT22;14973;51.460;7.008;2023-05-01T06:14:09;20.10;1.00
27534;DHT22;14973;51.460;7.008;2023-05-01T06:16:35;19.40;1.00
27534;DHT22;14973;51.460;7.008;2023-05-01T06:19:00;18.70;1.00
27534;DHT22;14973;51.460;7.008;2023-05-01T06:21:26;18.30;1.00
27534;DHT22;14973;51.460;7.008;2023-05-01T06:23:52;17.80;1.00
27534;DHT22;14973;51.460;7.008;2023-05-01T06:26:17;17.70;1.00
27534;DHT22;14973;51.460;7.008;2023-05-01T06:28:43;17.70;1.00
27534;DHT22;14973;51.460;7.008;2023-05-01T06:31:08;17.50;1.00
27534;DHT22;14973;51.460;7.008;2023-05-01T06:33:34;17.10;1.00
27534;DHT22;14973;51.460;7.008;2023-05-01T06:35:59;17.00;1.00
27534;DHT22;14973;51.460;7.008;2023-05-01T06:38:25;16.90;1.00
27534;DHT22;14973;51.460;7.008;2023-05-01T06:40:51;17.00;1.00
27534;DHT22;14973;51.460;7.008;2023-05-01T06:43:16;17.00;1.00
27534;DHT22;14973;51.460;7.008;2023-05-01T06:45:42;17.20;1.00
27534;DHT22;14973;51.460;7.008;2023-05-01T06:48:08;17.30;1.00
27534;DHT22;14973;51.460;7.008;2023-05-01T06:50:35;17.20;1.00
27534;DHT22;14973;51.460;7.008;2023-05-01T06:53:00;17.40;1.00
27534;DHT22;14973;51.460;7.008;2023-05-01T06:55:27;17.40;1.00
27534;DHT22;14973;51.460;7.008;2023-05-01T06:57:58;17.20;1.00
27534;DHT22;14973;51.460;7.008;2023-05-01T07:00:23;17.40;1.00
27534;DHT22;14973;51.460;7.008;2023-05-01T07:02:49;17.20;1.00
27534;DHT22;14973;51.460;7.008;2023-05-01T07:05:14;17.30;1.00
27534;DHT22;14973;51.460;7.008;2023-05-01T07:07:40;17.40;1.00
27534;DHT22;14973;51.460;7.008;2023-05-01T07:10:06;17.60;1.00
27534;DHT22;14973;51.460;7.008;2023-05-01T07:12:31;17.90;1.00
27534;DHT22;14973;51.460;7.008;2023-05-01T07:14:57;18.30;1.00
27534;DHT22;14973;51.460;7.008;2023-05-01T07:17:22;18.50;1.00
27534;DHT22;14973;51.460;7.008;2023-05-01T07:19:51;18.70;1.00
27534;DHT22;14973;51.460;7.008;2023-05-01T07:22:17;18.90;1.00
27534;DHT22;14973;51.460;7.008;2023-05-01T07:24:43;19.00;1.00
27534;DHT22;14973;51.460;7.008;2023-05-01T07:27:11;19.10;1.00
27534;DHT22;14973;51.460;7.008;2023-05-01T07:29:39;19.40;1.00
27534;DHT22;14973;51.460;7.008;2023-05-01T07:32:08;19.70;1.00
27534;DHT22;14973;51.460;7.008;2023-05-01T07:34:33;20.20;1.00
27534;DHT22;14973;51.460;7.008;2023-05-01T07:36:59;20.70;1.00
27534;DHT22;14973;51.460;7.008;2023-05-01T07:39:25;21.10;1.00
27534;DHT22;14973;51.460;7.008;2023-05-01T07:41:53;21.00;1.00
27534;DHT22;14973;51.460;7.008;2023-05-01T07:44:21;20.70;1.00
27534;DHT22;14973;51.460;7.008;2023-05-01T07:46:46;20.80;1.00
27534;DHT22;14973;51.460;7.008;2023-05-01T07:49:12;20.70;1.00
27534;DHT22;14973;51.460;7.008;2023-05-01T07:51:37;20.60;1.00
27534;DHT22;14973;51.460;7.008;2023-05-01T07:54:03;20.60;1.00
27534;DHT22;14973;51.460;7.008;2023-05-01T07:56:29;20.40;1.00
27534;DHT22;14973;51.460;7.008;2023-05-01T07:58:57;20.40;1.00
27534;DHT22;14973;51.460;7.008;2023-05-01T08:01:23;20.50;99.90
27534;DHT22;14973;51.460;7.008;2023-05-01T08:03:48;20.70;99.90
27534;DHT22;14973;51.460;7.008;2023-05-01T08:06:17;20.80;99.90
27534;DHT22;14973;51.460;7.008;2023-05-01T08:08:42;21.30;99.90
27534;DHT22;14973;51.460;7.008;2023-05-01T08:11:08;21.60;99.90
27534;DHT22;14973;51.460;7.008;2023-05-01T08:13:36;21.90;99.90
27534;DHT22;14973;51.460;7.008;2023-05-01T08:16:02;22.50;99.90
27534;DHT22;14973;51.460;7.008;2023-05-01T08:18:28;23.80;99.90
27534;DHT22;14973;51.460;7.008;2023-05-01T08:20:56;24.50;99.90
27534;DHT22;14973;51.460;7.008;2023-05-01T08:23:22;25.40;99.90
27534;DHT22;14973;51.460;7.008;2023-05-01T08:25:50;26.10;99.90
27534;DHT22;14973;51.460;7.008;2023-05-01T08:28:16;26.50;99.90
27534;DHT22;14973;51.460;7.008;2023-05-01T08:30:42;26.80;99.90
27534;DHT22;14973;51.460;7.008;2023-05-01T08:33:08;27.40;99.90
27534;DHT22;14973;51.460;7.008;2023-05-01T08:35:37;27.80;99.90
27534;DHT22;14973;51.460;7.008;2023-05-01T08:38:02;27.70;99.90
27534;DHT22;14973;51.460;7.008;2023-05-01T08:40:30;28.30;99.90
27534;DHT22;14973;51.460;7.008;2023-05-01T08:42:57;28.60;99.90
27534;DHT22;14973;51.460;7.008;2023-05-01T08:45:24;28.30;99.90
27534;DHT22;14973;51.460;7.008;2023-05-01T08:47:52;28.30;99.90
27534;DHT22;14973;51.460;7.008;2023-05-01T08:50:21;28.60;99.90
27534;DHT22;14973;51.460;7.008;2023-05-01T08:52:47;28.70;99.90
27534;DHT22;14973;51.460;7.008;2023-05-01T08:55:15;29.00;99.90
27534;DHT22;14973;51.460;7.008;2023-05-01T08:57:44;28.80;99.90
27534;DHT22;14973;51.460;7.008;2023-05-01T09:00:13;28.80;99.90
27534;DHT22;14973;51.460;7.008;2023-05-01T09:02:50;29.70;99.90
27534;DHT22;14973;51.460;7.008;2023-05-01T09:05:19;30.50;99.90
27534;DHT22;14973;51.460;7.008;2023-05-01T09:07:45;31.00;99.90
27534;DHT22;14973;51.460;7.008;2023-05-01T09:10:11;31.00;99.90
27534;DHT22;14973;51.460;7.008;2023-05-01T09:12:37;31.20;99.90
27534;DHT22;14973;51.460;7.008;2023-05-01T09:15:03;31.70;99.90
27534;DHT22;14973;51.460;7.008;2023-05-01T09:17:34;31.00;99.90
27534;DHT22;14973;51.460;7.008;2023-05-01T09:20:01;30.50;99.90
27534;DHT22;14973;51.460;7.008;2023-05-01T09:22:30;31.70;99.90
27534;DHT22;14973;51.460;7.008;2023-05-01T09:24:58;32.20;99.90
27534;DHT22;14973;51.460;7.008;2023-05-01T09:27:28;33.00;99.90
27534;DHT22;14973;51.460;7.008;2023-05-01T09:29:57;32.50;99.90
27534;DHT22;14973;51.460;7.008;2023-05-01T09:32:24;33.00;99.90
27534;DHT22;14973;51.460;7.008;2023-05-01T09:34:53;33.30;99.90
27534;DHT22;14973;51.460;7.008;2023-05-01T09:40:27;33.40;99.90
27534;DHT22;14973;51.460;7.008;2023-05-01T09:42:49;34.40;99.90
27534;DHT22;14973;51.460;7.008;2023-05-01T09:45:20;34.70;99.90
27534;DHT22;14973;51.460;7.008;2023-05-01T09:47:47;34.40;99.90
27534;DHT22;14973;51.460;7.008;2023-05-01T09:50:32;34.30;99.90
27534;DHT22;14973;51.460;7.008;2023-05-01T09:53:02;33.70;99.90
27534;DHT22;14973;51.460;7.008;2023-05-01T09:55:31;33.00;99.90
27534;DHT22;14973;51.460;7.008;2023-05-01T09:57:57;31.70;99.90
27534;DHT22;14973;51.460;7.008;2023-05-01T10:00:23;31.30;99.90
27534;DHT22;14973;51.460;7.008;2023-05-01T10:02:49;30.80;99.90
27534;DHT22;14973;51.460;7.008;2023-05-01T10:05:18;29.80;99.90
27534;DHT22;14973;51.460;7.008;2023-05-01T10:07:57;29.90;99.90
27534;DHT22;14973;51.460;7.008;2023-05-01T10:10:23;29.90;99.90
27534;DHT22;14973;51.460;7.008;2023-05-01T10:12:48;29.80;99.90
27534;DHT22;14973;51.460;7.008;2023-05-01T10:15:14;29.70;99.90
27534;DHT22;14973;51.460;7.008;2023-05-01T10:17:41;30.10;99.90
27534;DHT22;14973;51.460;7.008;2023-05-01T10:20:08;30.00;99.90
27534;DHT22;14973;51.460;7.008;2023-05-01T10:22:34;29.10;99.90
27534;DHT22;14973;51.460;7.008;2023-05-01T10:25:00;29.30;99.90
27534;DHT22;14973;51.460;7.008;2023-05-01T10:27:29;29.00;99.90
27534;DHT22;14973;51.460;7.008;2023-05-01T10:29:55;29.00;99.90
27534;DHT22;14973;51.460;7.008;2023-05-01T10:32:21;28.30;99.90
27534;DHT22;14973;51.460;7.008;2023-05-01T10:34:51;27.90;99.90
27534;DHT22;14973;51.460;7.008;2023-05-01T10:38:05;27.90;99.90
27534;DHT22;14973;51.460;7.008;2023-05-01T10:45:34;27.70;99.90
27534;DHT22;14973;51.460;7.008;2023-05-01T10:48:00;28.00;99.90
27534;DHT22;14973;51.460;7.008;2023-05-01T10:50:26;28.10;99.90
27534;DHT22;14973;51.460;7.008;2023-05-01T10:55:42;28.10;99.90
27534;DHT22;14973;51.460;7.008;2023-05-01T10:58:09;28.10;99.90
27534;DHT22;14973;51.460;7.008;2023-05-01T11:00:35;28.20;99.90
27534;DHT22;14973;51.460;7.008;2023-05-01T11:08:35;27.50;99.90
27534;DHT22;14973;51.460;7.008;2023-05-01T11:14:04;27.40;99.90
27534;DHT22;14973;51.460;7.008;2023-05-01T11:19:05;26.50;99.90
27534;DHT22;14973;51.460;7.008;2023-05-01T11:21:32;26.20;99.90
27534;DHT22;14973;51.460;7.008;2023-05-01T11:24:04;26.00;99.90
27534;DHT22;14973;51.460;7.008;2023-05-01T11:26:30;26.30;99.90
27534;DHT22;14973;51.460;7.008;2023-05-01T11:28:57;26.20;99.90
27534;DHT22;14973;51.460;7.008;2023-05-01T11:31:24;26.30;99.90
27534;DHT22;14973;51.460;7.008;2023-05-01T11:33:49;26.40;99.90
27534;DHT22;14973;51.460;7.008;2023-05-01T11:36:15;26.40;99.90
27534;DHT22;14973;51.460;7.008;2023-05-01T11:41:23;26.10;99.90
27534;DHT22;14973;51.460;7.008;2023-05-01T11:46:30;26.00;99.90
27534;DHT22;14973;51.460;7.008;2023-05-01T11:49:16;25.30;99.90
27534;DHT22;14973;51.460;7.008;2023-05-01T11:51:55;25.10;99.90
27534;DHT22;14973;51.460;7.008;2023-05-01T11:54:20;24.80;99.90
27534;DHT22;14973;51.460;7.008;2023-05-01T11:56:46;24.70;99.90
27534;DHT22;14973;51.460;7.008;2023-05-01T11:59:15;24.80;99.90
27534;DHT22;14973;51.460;7.008;2023-05-01T12:01:41;24.80;99.90
27534;DHT22;14973;51.460;7.008;2023-05-01T12:04:09;24.60;99.90
27534;DHT22;14973;51.460;7.008;2023-05-01T12:06:42;24.40;99.90
27534;DHT22;14973;51.460;7.008;2023-05-01T12:09:19;24.30;99.90
27534;DHT22;14973;51.460;7.008;2023-05-01T12:11:46;24.60;99.90
27534;DHT22;14973;51.460;7.008;2023-05-01T12:14:15;24.80;99.90
27534;DHT22;14973;51.460;7.008;2023-05-01T12:16:41;24.60;99.90
27534;DHT22;14973;51.460;7.008;2023-05-01T12:19:07;24.60;99.90
27534;DHT22;14973;51.460;7.008;2023-05-01T12:21:33;24.30;99.90
27534;DHT22;14973;51.460;7.008;2023-05-01T12:24:17;24.40;99.90
27534;DHT22;14973;51.460;7.008;2023-05-01T12:26:43;24.30;99.90
27534;DHT22;14973;51.460;7.008;2023-05-01T12:29:09;24.40;99.90
27534;DHT22;14973;51.460;7.008;2023-05-01T12:31:34;24.20;99.90
27534;DHT22;14973;51.460;7.008;2023-05-01T12:34:01;24.40;99.90
27534;DHT22;14973;51.460;7.008;2023-05-01T12:36:28;24.00;99.90
27534;DHT22;14973;51.460;7.008;2023-05-01T12:39:01;24.00;99.90
27534;DHT22;14973;51.460;7.008;2023-05-01T12:41:31;23.60;99.90
27534;DHT22;14973;51.460;7.008;2023-05-01T12:43:57;23.40;99.90
27534;DHT22;14973;51.460;7.008;2023-05-01T12:46:22;23.30;99.90
27534;DHT22;14973;51.460;7.008;2023-05-01T12:48:48;22.90;99.90
27534;DHT22;14973;51.460;7.008;2023-05-01T12:51:17;22.80;99.90
27534;DHT22;14973;51.460;7.008;2023-05-01T12:53:43;22.60;99.90
27534;DHT22;14973;51.460;7.008;2023-05-01T12:56:16;22.60;99.90
27534;DHT22;14973;51.460;7.008;2023-05-01T12:58:46;22.60;99.90
27534;DHT22;14973;51.460;7.008;2023-05-01T13:01:12;22.60;99.90
27534;DHT22;14973;51.460;7.008;2023-05-01T13:03:41;22.70;99.90
27534;DHT22;14973;51.460;7.008;2023-05-01T13:06:07;22.70;99.90
27534;DHT22;14973;51.460;7.008;2023-05-01T13:08:35;23.00;99.90
27534;DHT22;14973;51.460;7.008;2023-05-01T13:11:34;22.80;99.90
27534;DHT22;14973;51.460;7.008;2023-05-01T13:13:53;22.90;99.90
27534;DHT22;14973;51.460;7.008;2023-05-01T13:16:19;23.30;99.90
27534;DHT22;14973;51.460;7.008;2023-05-01T13:21:11;23.60;99.90
27534;DHT22;14973;51.460;7.008;2023-05-01T13:23:38;23.80;99.90
27534;DHT22;14973;51.460;7.008;2023-05-01T13:26:07;23.90;99.90
27534;DHT22;14973;51.460;7.008;2023-05-01T13:28:33;23.60;99.90
27534;DHT22;14973;51.460;7.008;2023-05-01T13:30:59;23.50;99.90
27534;DHT22;14973;51.460;7.008;2023-05-01T13:33:25;23.50;99.90
27534;DHT22;14973;51.460;7.008;2023-05-01T13:35:50;23.30;99.90
27534;DHT22;14973;51.460;7.008;2023-05-01T13:38:16;23.20;99.90
27534;DHT22;14973;51.460;7.008;2023-05-01T13:40:47;23.20;99.90
27534;DHT22;14973;51.460;7.008;2023-05-01T13:43:13;23.40;99.90
27534;DHT22;14973;51.460;7.008;2023-05-01T13:45:41;23.80;99.90
27534;DHT22;14973;51.460;7.008;2023-05-01T13:48:07;24.10;99.90
27534;DHT22;14973;51.460;7.008;2023-05-01T13:50:33;24.30;99.90
27534;DHT22;14973;51.460;7.008;2023-05-01T13:52:59;24.70;99.90
27534;DHT22;14973;51.460;7.008;2023-05-01T13:55:25;24.70;99.90
27534;DHT22;14973;51.460;7.008;2023-05-01T13:57:51;24.60;99.90
27534;DHT22;14973;51.460;7.008;2023-05-01T14:00:17;24.50;99.90
27534;DHT22;14973;51.460;7.008;2023-05-01T14:02:44;24.20;99.90
27534;DHT22;14973;51.460;7.008;2023-05-01T14:05:10;24.30;99.90
27534;DHT22;14973;51.460;7.008;2023-05-01T14:07:42;24.30;99.90
27534;DHT22;14973;51.460;7.008;2023-05-01T14:10:09;24.20;99.90
27534;DHT22;14973;51.460;7.008;2023-05-01T14:12:35;24.00;99.90
27534;DHT22;14973;51.460;7.008;2023-05-01T14:15:00;24.20;99.90
27534;DHT22;14973;51.460;7.008;2023-05-01T14:17:34;24.00;99.90
27534;DHT22;14973;51.460;7.008;2023-05-01T14:20:00;23.60;99.90
27534;DHT22;14973;51.460;7.008;2023-05-01T14:25:29;22.70;99.90
27534;DHT22;14973;51.460;7.008;2023-05-01T14:27:56;22.00;99.90
27534;DHT22;14973;51.460;7.008;2023-05-01T14:30:29;21.70;99.90
27534;DHT22;14973;51.460;7.008;2023-05-01T14:32:57;21.50;99.90
27534;DHT22;14973;51.460;7.008;2023-05-01T14:35:25;21.30;99.90
27534;DHT22;14973;51.460;7.008;2023-05-01T14:37:51;21.10;99.90
27534;DHT22;14973;51.460;7.008;2023-05-01T14:40:26;21.10;99.90
27534;DHT22;14973;51.460;7.008;2023-05-01T14:42:52;20.90;99.90
27534;DHT22;14973;51.460;7.008;2023-05-01T14:45:18;20.70;99.90
27534;DHT22;14973;51.460;7.008;2023-05-01T14:47:47;20.50;99.90
27534;DHT22;14973;51.460;7.008;2023-05-01T14:50:20;20.30;99.90
27534;DHT22;14973;51.460;7.008;2023-05-01T14:52:46;20.10;99.90
27534;DHT22;14973;51.460;7.008;2023-05-01T14:55:13;20.00;99.90
27534;DHT22;14973;51.460;7.008;2023-05-01T14:57:39;19.80;99.90
27534;DHT22;14973;51.460;7.008;2023-05-01T15:00:05;19.60;99.90
27534;DHT22;14973;51.460;7.008;2023-05-01T15:02:31;19.30;99.90
27534;DHT22;14973;51.460;7.008;2023-05-01T15:04:58;18.80;99.90
27534;DHT22;14973;51.460;7.008;2023-05-01T15:07:24;18.40;99.90
27534;DHT22;14973;51.460;7.008;2023-05-01T15:09:49;17.80;99.90
27534;DHT22;14973;51.460;7.008;2023-05-01T15:12:16;17.20;1.00
27534;DHT22;14973;51.460;7.008;2023-05-01T15:14:41;16.80;1.00
27534;DHT22;14973;51.460;7.008;2023-05-01T15:17:07;16.30;1.00
27534;DHT22;14973;51.460;7.008;2023-05-01T15:19:33;15.90;3.80
27534;DHT22;14973;51.460;7.008;2023-05-01T15:21:58;15.60;99.90
27534;DHT22;14973;51.460;7.008;2023-05-01T15:24:27;15.40;99.90
27534;DHT22;14973;51.460;7.008;2023-05-01T15:26:52;15.30;2.40
27534;DHT22;14973;51.460;7.008;2023-05-01T15:29:18;15.20;99.90
27534;DHT22;14973;51.460;7.008;2023-05-01T15:31:43;15.00;1.00
27534;DHT22;14973;51.460;7.008;2023-05-01T15:34:09;15.00;99.90
27534;DHT22;14973;51.460;7.008;2023-05-01T15:36:35;15.00;99.90
27534;DHT22;14973;51.460;7.008;2023-05-01T15:39:00;15.00;1.00
27534;DHT22;14973;51.460;7.008;2023-05-01T15:41:27;15.00;16.70
27534;DHT22;14973;51.460;7.008;2023-05-01T15:43:53;14.90;99.90
27534;DHT22;14973;51.460;7.008;2023-05-01T15:46:19;14.70;1.00
27534;DHT22;14973;51.460;7.008;2023-05-01T15:48:47;14.70;39.30
27534;DHT22;14973;51.460;7.008;2023-05-01T15:51:13;14.50;1.00
27534;DHT22;14973;51.460;7.008;2023-05-01T15:53:39;14.50;1.00
27534;DHT22;14973;51.460;7.008;2023-05-01T15:56:05;14.40;1.00
27534;DHT22;14973;51.460;7.008;2023-05-01T15:58:30;14.40;1.00
27534;DHT22;14973;51.460;7.008;2023-05-01T16:00:56;14.20;1.00
27534;DHT22;14973;51.460;7.008;2023-05-01T16:03:21;14.10;1.00
27534;DHT22;14973;51.460;7.008;2023-05-01T16:05:47;14.00;8.80
27534;DHT22;14973;51.460;7.008;2023-05-01T16:08:12;13.90;20.30
27534;DHT22;14973;51.460;7.008;2023-05-01T16:10:38;13.80;42.40
27534;DHT22;14973;51.460;7.008;2023-05-01T16:13:04;13.70;66.70
27534;DHT22;14973;51.460;7.008;2023-05-01T16:15:30;13.60;63.00
27534;DHT22;14973;51.460;7.008;2023-05-01T16:17:56;13.50;89.80
27534;DHT22;14973;51.460;7.008;2023-05-01T16:20:22;13.60;99.90
27534;DHT22;14973;51.460;7.008;2023-05-01T16:22:48;13.70;99.90
27534;DHT22;14973;51.460;7.008;2023-05-01T16:25:14;13.70;99.90
27534;DHT22;14973;51.460;7.008;2023-05-01T16:27:41;13.70;91.30
27534;DHT22;14973;51.460;7.008;2023-05-01T16:30:09;13.70;60.70